createdAt,value
2019-03-27T00:01:15.034Z,13.60
2019-03-27T00:03:16.174Z,22.45
2019-03-27T00:05:17.339Z,14.68
2019-03-27T00:07:19.316Z,18.60
2019-03-27T00:09:20.454Z,26.02
2019-03-27T00:11:21.675Z,15.10
2019-03-27T00:13:22.917Z,17.27
2019-03-27T00:15:24.363Z,19.05
2019-03-27T00:17:25.526Z,24.90
2019-03-27T00:19:26.747Z,22.98
2019-03-27T00:21:27.995Z,18.80
2019-03-27T00:23:29.155Z,22.65
2019-03-27T00:25:30.670Z,18.07
2019-03-27T00:27:31.923Z,27.65
2019-03-27T00:29:33.458Z,22.65
2019-03-27T00:31:34.668Z,19.17
2019-03-27T00:33:35.828Z,19.35
2019-03-27T00:35:36.970Z,17.82
2019-03-27T00:37:38.132Z,16.65
2019-03-27T00:39:39.271Z,29.67
2019-03-27T00:41:40.432Z,20.90
2019-03-27T00:43:41.687Z,17.10
2019-03-27T00:45:42.879Z,16.90
2019-03-27T00:47:44.122Z,15.30
2019-03-27T00:49:45.262Z,21.27
2019-03-27T00:51:46.534Z,19.32
2019-03-27T00:53:47.682Z,23.10
2019-03-27T00:55:49.223Z,17.48
2019-03-27T00:57:50.375Z,18.48
2019-03-27T00:59:51.525Z,16.02
2019-03-27T01:01:52.678Z,13.22
2019-03-27T01:03:53.826Z,12.60
2019-03-27T01:05:54.971Z,19.05
2019-03-27T01:07:56.127Z,16.15
2019-03-27T01:09:57.275Z,20.10
2019-03-27T01:11:59.344Z,19.98
2019-03-27T01:14:00.770Z,13.93
2019-03-27T01:16:02.028Z,21.00
2019-03-27T01:18:03.683Z,18.42
2019-03-27T01:20:05.429Z,21.77
2019-03-27T01:24:07.703Z,21.27
2019-03-27T01:26:09.294Z,27.35
2019-03-27T01:30:13.135Z,25.62
2019-03-27T01:32:14.418Z,23.05
2019-03-27T01:34:15.574Z,22.22
2019-03-27T01:36:17.571Z,32.38
2019-03-27T01:38:19.278Z,24.52
2019-03-27T01:42:22.335Z,21.80
2019-03-27T01:44:24.193Z,17.12
2019-03-27T01:48:26.732Z,13.72
2019-03-27T01:50:27.883Z,15.55
2019-03-27T01:52:29.051Z,17.27
2019-03-27T01:54:30.698Z,21.17
2019-03-27T01:58:32.888Z,22.52
2019-03-27T02:00:34.036Z,22.30
2019-03-27T02:02:35.194Z,19.65
2019-03-27T02:04:36.650Z,11.45
2019-03-27T02:06:37.793Z,24.55
2019-03-27T02:08:39.342Z,25.50
2019-03-27T02:12:41.947Z,16.30
2019-03-27T02:14:43.081Z,20.10
2019-03-27T02:16:44.785Z,23.10
2019-03-27T02:22:49.776Z,24.70
2019-03-27T02:24:51.523Z,24.55
2019-03-27T02:28:53.831Z,24.40
2019-03-27T02:30:55.339Z,16.82
2019-03-27T02:32:56.595Z,28.40
2019-03-27T02:34:58.171Z,22.70
2019-03-27T02:39:00.636Z,29.63
2019-03-27T02:41:01.976Z,24.05
2019-03-27T02:43:03.528Z,32.33
2019-03-27T02:45:05.103Z,27.17
2019-03-27T02:47:06.257Z,23.00
2019-03-27T02:49:07.412Z,21.40
2019-03-27T02:51:08.563Z,19.92
2019-03-27T02:53:10.050Z,19.87
2019-03-27T02:55:11.415Z,15.18
2019-03-27T02:57:12.570Z,16.35
2019-03-27T02:59:13.819Z,18.60
2019-03-27T03:01:14.983Z,20.30
2019-03-27T03:03:16.157Z,20.00
2019-03-27T03:05:17.298Z,17.92
2019-03-27T03:07:18.446Z,22.65
2019-03-27T03:09:19.589Z,16.27
2019-03-27T03:11:20.730Z,27.48
2019-03-27T03:13:21.882Z,19.50
2019-03-27T03:15:23.325Z,24.50
2019-03-27T03:17:24.514Z,29.07
2019-03-27T03:19:25.668Z,23.70
2019-03-27T03:21:27.094Z,25.85
2019-03-27T03:23:28.241Z,22.48
2019-03-27T03:25:29.385Z,20.40
2019-03-27T03:27:30.861Z,35.52
2019-03-27T03:29:32.182Z,21.33
2019-03-27T03:31:33.342Z,25.57
2019-03-27T03:33:34.675Z,31.10
2019-03-27T03:35:35.910Z,28.90
2019-03-27T03:37:37.461Z,29.15
2019-03-27T03:39:38.845Z,33.23
2019-03-27T03:41:40.603Z,37.95
2019-03-27T03:43:42.210Z,37.83
2019-03-27T03:45:43.674Z,34.33
2019-03-27T03:47:44.911Z,38.48
2019-03-27T03:49:46.068Z,37.00
2019-03-27T03:51:47.584Z,36.03
2019-03-27T03:53:49.085Z,43.52
2019-03-27T03:55:51.216Z,33.53
2019-03-27T03:57:53.454Z,45.65
2019-03-27T03:59:56.451Z,32.98
2019-03-27T04:02:01.678Z,45.17
2019-03-27T04:04:03.628Z,38.25
2019-03-27T04:06:04.936Z,39.67
2019-03-27T04:08:06.191Z,36.03
2019-03-27T04:10:07.566Z,29.45
2019-03-27T04:12:08.910Z,28.90
2019-03-27T04:14:10.520Z,32.00
2019-03-27T04:16:12.186Z,24.65
2019-03-27T04:21:49.358Z,23.10
2019-03-27T04:23:51.835Z,28.02
2019-03-27T04:26:08.941Z,28.27
2019-03-27T04:27:56.127Z,30.48
2019-03-27T04:29:58.855Z,33.53
2019-03-27T04:32:00.112Z,33.65
2019-03-27T04:34:01.880Z,35.40
2019-03-27T04:38:04.986Z,39.18
2019-03-27T04:40:06.442Z,43.63
2019-03-27T04:42:07.582Z,45.40
2019-03-27T04:47:11.031Z,51.05
2019-03-27T04:49:12.528Z,54.95
2019-03-27T04:51:14.029Z,48.08
2019-03-27T04:53:15.836Z,59.50
2019-03-27T04:55:17.357Z,44.73
2019-03-27T04:57:18.503Z,47.75
2019-03-27T04:59:19.755Z,44.33
2019-03-27T05:01:20.898Z,46.55
2019-03-27T05:03:22.179Z,46.92
2019-03-27T05:05:23.706Z,50.38
2019-03-27T05:07:25.159Z,48.00
2019-03-27T05:09:26.321Z,56.00
2019-03-27T05:11:27.463Z,45.50
2019-03-27T05:13:28.616Z,55.33
2019-03-27T05:15:29.771Z,38.20
2019-03-27T05:17:30.922Z,49.98
2019-03-27T05:19:32.087Z,56.35
2019-03-27T05:21:33.238Z,52.38
2019-03-27T05:23:34.389Z,52.38
2019-03-27T05:25:35.808Z,62.20
2019-03-27T05:27:39.103Z,56.58
2019-03-27T05:29:40.254Z,63.13
2019-03-27T05:31:41.733Z,67.20
2019-03-27T05:33:43.248Z,62.15
2019-03-27T05:35:44.486Z,78.28
2019-03-27T05:37:45.635Z,65.57
2019-03-27T05:39:46.786Z,65.25
2019-03-27T05:41:47.934Z,59.93
2019-03-27T05:43:49.074Z,60.85
2019-03-27T05:45:50.267Z,57.17
2019-03-27T05:47:59.593Z,61.63
2019-03-27T05:49:54.534Z,56.37
2019-03-27T05:51:55.710Z,59.73
2019-03-27T05:53:56.941Z,58.15
2019-03-27T05:55:58.136Z,58.38
2019-03-27T05:57:59.696Z,63.63
2019-03-27T06:00:00.998Z,56.40
2019-03-27T06:02:02.143Z,57.95
2019-03-27T06:04:03.410Z,60.20
2019-03-27T06:06:04.546Z,51.45
2019-03-27T06:08:05.700Z,61.35
2019-03-27T06:10:07.152Z,55.40
2019-03-27T06:12:08.305Z,48.42
2019-03-27T06:14:09.458Z,55.83
2019-03-27T06:16:11.175Z,53.90
2019-03-27T06:18:13.523Z,49.55
2019-03-27T06:20:14.889Z,46.58
2019-03-27T06:22:16.072Z,49.73
2019-03-27T06:24:17.246Z,47.38
2019-03-27T06:26:18.479Z,37.20
2019-03-27T06:28:19.954Z,44.30
2019-03-27T06:30:21.614Z,44.33
2019-03-27T06:34:24.198Z,45.73
2019-03-27T06:36:25.338Z,46.10
2019-03-27T06:38:26.887Z,48.25
2019-03-27T06:40:28.051Z,54.75
2019-03-27T06:42:29.195Z,44.27
2019-03-27T06:44:30.454Z,36.33
2019-03-27T06:46:31.615Z,41.60
2019-03-27T06:48:33.198Z,34.73
2019-03-27T06:50:34.395Z,37.75
2019-03-27T06:52:35.881Z,39.13
2019-03-27T06:54:37.058Z,44.33
2019-03-27T06:56:38.199Z,37.48
2019-03-27T06:58:39.354Z,35.63
2019-03-27T07:00:40.543Z,33.92
2019-03-27T07:02:41.695Z,44.98
2019-03-27T07:04:42.859Z,35.35
2019-03-27T07:06:44.002Z,36.08
2019-03-27T07:08:45.199Z,35.85
2019-03-27T07:10:46.364Z,38.70
2019-03-27T07:12:47.546Z,38.20
2019-03-27T07:14:48.706Z,43.85
2019-03-27T07:16:49.873Z,46.35
2019-03-27T07:18:51.095Z,32.55
2019-03-27T07:20:52.352Z,43.02
2019-03-27T07:22:53.584Z,41.85
2019-03-27T07:24:54.744Z,38.42
2019-03-27T07:26:55.963Z,45.45
2019-03-27T07:28:57.130Z,38.50
2019-03-27T07:30:58.288Z,32.60
2019-03-27T07:33:00.116Z,38.63
2019-03-27T07:35:01.380Z,33.00
2019-03-27T07:37:02.902Z,30.77
2019-03-27T07:39:11.028Z,34.13
2019-03-27T07:41:08.188Z,43.80
2019-03-27T07:43:09.370Z,33.00
2019-03-27T07:45:11.252Z,44.10
2019-03-27T07:47:12.411Z,41.18
2019-03-27T07:49:13.654Z,41.53
2019-03-27T07:51:14.816Z,39.55
2019-03-27T07:53:15.966Z,39.40
2019-03-27T07:55:19.592Z,41.95
2019-03-27T07:57:20.332Z,45.48
2019-03-27T07:59:21.475Z,39.70
2019-03-27T08:01:23.021Z,40.40
2019-03-27T08:05:25.422Z,38.10
2019-03-27T08:07:27.304Z,35.95
2019-03-27T08:09:28.630Z,37.88
2019-03-27T08:11:30.379Z,30.40
2019-03-27T08:13:31.758Z,37.95
2019-03-27T08:15:32.902Z,29.02
2019-03-27T08:17:34.466Z,47.43
2019-03-27T08:21:37.127Z,40.63
2019-03-27T08:23:38.627Z,37.95
2019-03-27T08:25:39.774Z,37.95
2019-03-27T08:27:40.909Z,30.23
2019-03-27T08:29:42.109Z,33.40
2019-03-27T08:31:43.597Z,36.88
2019-03-27T08:33:45.249Z,28.70
2019-03-27T08:37:47.407Z,33.42
2019-03-27T08:39:48.541Z,25.23
2019-03-27T08:41:49.694Z,22.00
2019-03-27T08:43:50.926Z,34.00
2019-03-27T08:45:52.085Z,30.92
2019-03-27T08:47:53.257Z,27.75
2019-03-27T08:49:54.397Z,34.43
2019-03-27T08:51:55.622Z,30.43
2019-03-27T08:53:56.840Z,25.10
2019-03-27T08:55:58.022Z,28.67
2019-03-27T08:57:59.233Z,37.08
2019-03-27T09:00:02.632Z,26.50
2019-03-27T09:02:05.432Z,26.35
2019-03-27T09:04:06.845Z,25.92
2019-03-27T09:06:08.398Z,24.57
2019-03-27T09:08:09.551Z,22.30
2019-03-27T09:10:11.496Z,23.60
2019-03-27T09:12:12.645Z,23.80
2019-03-27T09:14:14.082Z,22.55
2019-03-27T09:16:15.634Z,22.40
2019-03-27T09:18:17.081Z,20.68
2019-03-27T09:22:19.446Z,20.50
2019-03-27T09:24:20.587Z,23.00
2019-03-27T09:26:21.741Z,14.73
2019-03-27T09:28:22.961Z,21.70
2019-03-27T09:30:24.507Z,20.62
2019-03-27T09:32:25.810Z,18.23
2019-03-27T09:34:27.324Z,17.30
2019-03-27T09:36:28.573Z,22.37
2019-03-27T09:38:29.735Z,15.10
2019-03-27T09:40:30.893Z,18.98
2019-03-27T09:42:32.394Z,20.88
2019-03-27T09:44:33.552Z,18.65
2019-03-27T09:46:34.996Z,14.63
2019-03-27T09:48:36.534Z,13.62
2019-03-27T09:50:37.686Z,18.17
2019-03-27T09:52:38.852Z,16.77
2019-03-27T09:54:40.104Z,17.90
2019-03-27T09:56:41.322Z,22.13
2019-03-27T09:58:42.517Z,19.92
2019-03-27T10:00:47.489Z,18.70
2019-03-27T10:02:48.643Z,17.73
2019-03-27T10:04:50.157Z,17.95
2019-03-27T10:06:51.703Z,18.00
2019-03-27T10:08:52.849Z,19.62
2019-03-27T10:10:54.300Z,18.25
2019-03-27T10:12:55.575Z,15.63
2019-03-27T10:14:57.396Z,19.15
2019-03-27T10:16:58.568Z,18.40
2019-03-27T10:18:59.751Z,12.65
2019-03-27T10:21:00.918Z,14.70
2019-03-27T10:23:02.083Z,18.48
2019-03-27T10:25:07.046Z,13.90
2019-03-27T10:27:08.331Z,15.88
2019-03-27T10:29:09.483Z,16.00
2019-03-27T10:31:10.636Z,13.88
2019-03-27T10:33:15.036Z,16.75
2019-03-27T10:35:15.242Z,14.60
2019-03-27T10:37:16.408Z,20.35
2019-03-27T10:39:17.567Z,14.45
2019-03-27T10:41:18.723Z,15.58
2019-03-27T10:43:20.142Z,15.38
2019-03-27T10:45:21.294Z,15.48
2019-03-27T10:47:22.797Z,13.32
2019-03-27T10:49:24.033Z,15.50
2019-03-27T10:51:25.194Z,15.48
2019-03-27T10:53:26.354Z,14.23
2019-03-27T10:55:27.863Z,11.00
2019-03-27T10:57:29.411Z,13.50
2019-03-27T10:59:30.960Z,12.10
2019-03-27T11:01:32.105Z,15.63
2019-03-27T11:03:33.369Z,16.00
2019-03-27T11:07:36.150Z,10.50
2019-03-27T11:09:37.367Z,11.97
2019-03-27T11:11:38.818Z,8.93
2019-03-27T11:13:39.999Z,11.95
2019-03-27T11:15:41.153Z,7.22
2019-03-27T11:17:42.319Z,9.98
2019-03-27T11:19:44.490Z,11.38
2019-03-27T11:21:45.891Z,14.70
2019-03-27T11:23:47.070Z,12.05
2019-03-27T11:25:48.222Z,6.92
2019-03-27T11:27:49.436Z,9.85
2019-03-27T11:29:50.618Z,8.18
2019-03-27T11:31:52.056Z,8.95
2019-03-27T11:33:53.331Z,8.55
2019-03-27T11:35:54.575Z,8.43
2019-03-27T11:37:55.818Z,8.88
2019-03-27T11:39:57.534Z,9.38
2019-03-27T11:44:01.992Z,9.38
2019-03-27T11:46:04.026Z,10.80
2019-03-27T11:48:08.062Z,12.93
2019-03-27T11:50:08.842Z,10.95
2019-03-27T11:52:10.095Z,9.13
2019-03-27T11:54:14.534Z,6.92
2019-03-27T11:56:15.818Z,9.13
2019-03-27T11:58:16.994Z,17.92
2019-03-27T12:00:18.427Z,11.08
2019-03-27T12:02:19.887Z,9.85
2019-03-27T12:04:21.033Z,8.65
2019-03-27T12:06:22.187Z,10.60
2019-03-27T12:08:23.346Z,9.25
2019-03-27T12:10:24.539Z,8.83
2019-03-27T12:12:25.710Z,8.43
2019-03-27T12:14:26.885Z,6.00
2019-03-27T12:16:28.040Z,7.12
2019-03-27T12:18:31.894Z,8.08
2019-03-27T12:20:32.382Z,12.78
2019-03-27T12:22:33.534Z,8.75
2019-03-27T12:24:34.692Z,8.53
2019-03-27T12:26:36.180Z,9.73
2019-03-27T12:28:37.413Z,7.70
2019-03-27T12:30:38.545Z,5.25
2019-03-27T12:32:39.794Z,4.83
2019-03-27T12:34:40.954Z,6.92
2019-03-27T12:36:42.109Z,7.05
2019-03-27T12:38:43.267Z,5.78
2019-03-27T12:40:44.637Z,5.60
2019-03-27T12:42:45.863Z,5.70
2019-03-27T12:44:47.018Z,7.37
2019-03-27T12:46:51.717Z,6.15
2019-03-27T12:48:51.530Z,7.30
2019-03-27T12:50:52.770Z,8.95
2019-03-27T12:52:53.909Z,10.35
2019-03-27T12:54:55.085Z,13.43
2019-03-27T12:56:56.316Z,7.75
2019-03-27T12:58:57.569Z,18.90
2019-03-27T13:00:58.771Z,19.67
2019-03-27T13:02:59.918Z,8.55
2019-03-27T13:05:01.382Z,8.40
2019-03-27T13:07:02.625Z,11.22
2019-03-27T13:09:05.788Z,11.95
2019-03-27T13:11:06.942Z,8.65
2019-03-27T13:13:08.222Z,7.80
2019-03-27T13:15:09.424Z,10.13
2019-03-27T13:17:10.886Z,6.97
2019-03-27T13:19:12.142Z,7.47
2019-03-27T13:21:25.529Z,6.10
2019-03-27T13:23:16.337Z,16.42
2019-03-27T13:25:18.714Z,7.25
2019-03-27T13:27:20.562Z,11.95
2019-03-27T13:29:21.823Z,15.35
2019-03-27T13:31:22.971Z,9.70
2019-03-27T13:33:24.102Z,9.85
2019-03-27T13:35:25.261Z,4.55
2019-03-27T13:37:26.393Z,5.58
2019-03-27T13:39:27.810Z,8.33
2019-03-27T13:41:28.958Z,16.00
2019-03-27T13:43:30.093Z,5.35
2019-03-27T13:45:32.659Z,9.95
2019-03-27T13:47:34.434Z,6.85
2019-03-27T13:51:40.872Z,6.72
2019-03-27T13:53:39.670Z,5.95
2019-03-27T13:55:40.836Z,7.58
2019-03-27T13:57:42.264Z,5.28
2019-03-27T13:59:43.413Z,8.38
2019-03-27T14:01:44.550Z,5.10
2019-03-27T14:03:45.698Z,6.92
2019-03-27T14:05:46.858Z,5.58
2019-03-27T14:07:48.089Z,6.83
2019-03-27T14:09:49.334Z,7.05
2019-03-27T14:11:50.557Z,3.75
2019-03-27T14:13:51.692Z,4.87
2019-03-27T14:15:52.845Z,6.67
2019-03-27T14:17:53.988Z,5.60
2019-03-27T14:19:55.235Z,7.28
2019-03-27T14:21:56.432Z,4.95
2019-03-27T14:23:57.569Z,4.92
2019-03-27T14:25:58.766Z,5.33
2019-03-27T14:27:59.909Z,5.95
2019-03-27T14:30:01.074Z,8.38
2019-03-27T14:32:02.215Z,4.60
2019-03-27T14:34:03.348Z,4.87
2019-03-27T14:36:04.599Z,5.92
2019-03-27T14:38:05.763Z,6.15
2019-03-27T14:40:07.436Z,5.30
2019-03-27T14:44:09.697Z,6.15
2019-03-27T14:46:10.848Z,4.58
2019-03-27T14:48:11.985Z,4.28
2019-03-27T14:50:13.530Z,4.60
2019-03-27T14:52:14.671Z,5.95
2019-03-27T14:54:15.836Z,5.33
2019-03-27T14:56:16.986Z,5.83
2019-03-27T14:58:18.178Z,4.92
2019-03-27T15:00:19.438Z,8.38
2019-03-27T15:02:20.583Z,6.55
2019-03-27T15:04:21.924Z,4.35
2019-03-27T15:06:23.246Z,5.10
2019-03-27T15:08:24.397Z,6.72
2019-03-27T15:10:25.651Z,7.87
2019-03-27T15:12:27.112Z,5.28
2019-03-27T15:14:28.277Z,7.80
2019-03-27T15:16:29.528Z,7.28
2019-03-27T15:18:30.703Z,6.55
2019-03-27T15:20:32.258Z,5.30
2019-03-27T15:22:33.702Z,9.93
2019-03-27T15:24:34.853Z,5.25
2019-03-27T15:26:36.004Z,7.97
2019-03-27T15:28:37.147Z,8.78
2019-03-27T15:30:38.293Z,7.00
2019-03-27T15:32:39.549Z,7.40
2019-03-27T15:34:40.762Z,8.00
2019-03-27T15:36:41.917Z,13.53
2019-03-27T15:38:43.066Z,7.95
2019-03-27T15:40:44.833Z,5.78
2019-03-27T15:44:49.733Z,8.43
2019-03-27T15:46:50.405Z,11.30
2019-03-27T15:48:51.590Z,10.40
2019-03-27T15:50:58.479Z,13.28
2019-03-27T15:52:55.795Z,8.78
2019-03-27T15:54:56.962Z,8.98
2019-03-27T15:56:58.103Z,19.20
2019-03-27T15:58:59.257Z,7.37
2019-03-27T16:01:00.633Z,9.73
2019-03-27T16:03:01.865Z,8.20
2019-03-27T16:05:04.710Z,8.38
2019-03-27T16:07:05.870Z,9.70
2019-03-27T16:09:09.153Z,12.90
2019-03-27T16:11:10.428Z,12.43
2019-03-27T16:13:12.562Z,9.25
2019-03-27T16:15:13.938Z,8.20
2019-03-27T16:17:15.093Z,9.70
2019-03-27T16:19:16.515Z,16.37
2019-03-27T16:21:17.673Z,11.10
2019-03-27T16:23:18.813Z,14.05
2019-03-27T16:25:19.961Z,11.43
2019-03-27T16:27:21.131Z,17.20
2019-03-27T16:29:22.383Z,19.02
2019-03-27T16:31:23.547Z,10.95
2019-03-27T16:33:24.810Z,12.33
2019-03-27T16:35:26.025Z,15.88
2019-03-27T16:37:27.179Z,9.68
2019-03-27T16:39:28.391Z,9.20
2019-03-27T16:41:29.551Z,11.03
2019-03-27T16:43:30.702Z,7.72
2019-03-27T16:45:31.953Z,9.45
2019-03-27T16:47:33.240Z,7.90
2019-03-27T16:49:34.674Z,42.93
2019-03-27T16:51:35.918Z,45.17
2019-03-27T16:53:37.084Z,12.43
2019-03-27T16:55:38.327Z,13.05
2019-03-27T16:57:39.482Z,9.10
2019-03-27T16:59:40.702Z,6.67
2019-03-27T17:01:41.953Z,7.20
2019-03-27T17:03:43.173Z,6.83
2019-03-27T17:05:53.833Z,8.63
2019-03-27T17:07:47.373Z,9.35
2019-03-27T17:09:48.529Z,11.55
2019-03-27T17:11:49.881Z,10.38
2019-03-27T17:13:51.149Z,13.22
2019-03-27T17:15:52.350Z,16.07
2019-03-27T17:17:53.590Z,11.60
2019-03-27T17:19:54.801Z,15.00
2019-03-27T17:21:55.986Z,12.07
2019-03-27T17:23:57.243Z,14.10
2019-03-27T17:25:58.556Z,12.75
2019-03-27T17:27:59.833Z,14.40
2019-03-27T17:30:01.154Z,11.38
2019-03-27T17:32:02.517Z,14.58
2019-03-27T17:34:03.726Z,14.33
2019-03-27T17:36:04.997Z,10.90
2019-03-27T17:38:06.235Z,10.18
2019-03-27T17:40:07.585Z,12.47
2019-03-27T17:42:08.749Z,12.82
2019-03-27T17:44:09.953Z,11.60
2019-03-27T17:46:11.122Z,13.65
2019-03-27T17:48:12.359Z,8.68
2019-03-27T17:50:14.033Z,9.98
2019-03-27T17:52:15.243Z,8.80
2019-03-27T17:54:20.765Z,11.53
2019-03-27T17:56:19.490Z,35.63
2019-03-27T17:58:20.709Z,10.55
2019-03-27T18:00:39.997Z,10.63
2019-03-27T18:02:41.153Z,12.80
2019-03-27T18:04:42.323Z,13.20
2019-03-27T18:06:43.497Z,14.83
2019-03-27T18:08:44.662Z,8.05
2019-03-27T18:10:45.970Z,13.13
2019-03-27T18:12:47.206Z,12.60
2019-03-27T18:14:48.352Z,12.55
2019-03-27T18:16:49.598Z,16.40
2019-03-27T18:18:50.840Z,10.40
2019-03-27T18:20:52.217Z,15.45
2019-03-27T18:22:53.425Z,11.20
2019-03-27T18:24:54.575Z,10.63
2019-03-27T18:26:55.721Z,11.88
2019-03-27T18:28:57.110Z,12.80
2019-03-27T18:30:58.323Z,11.73
2019-03-27T18:32:59.466Z,9.85
2019-03-27T18:35:00.605Z,9.28
2019-03-27T18:37:01.758Z,10.72
2019-03-27T18:39:06.091Z,9.25
2019-03-27T18:41:07.329Z,12.37
2019-03-27T18:43:08.593Z,8.73
2019-03-27T18:45:10.141Z,9.95
2019-03-27T18:47:11.279Z,9.93
2019-03-27T18:49:12.440Z,10.55
2019-03-27T18:51:13.677Z,9.53
2019-03-27T18:53:14.886Z,8.90
2019-03-27T18:55:25.735Z,8.23
2019-03-27T18:57:19.199Z,13.80
2019-03-27T18:59:20.354Z,11.08
2019-03-27T19:01:21.654Z,8.78
2019-03-27T19:03:23.013Z,8.93
2019-03-27T19:05:24.218Z,12.13
2019-03-27T19:07:25.390Z,9.70
2019-03-27T19:09:26.655Z,10.93
2019-03-27T19:11:27.930Z,11.97
2019-03-27T19:13:29.185Z,11.57
2019-03-27T19:15:30.334Z,11.88
2019-03-27T19:17:31.517Z,8.40
2019-03-27T19:21:27.631Z,12.33
2019-03-27T19:23:28.787Z,10.13
2019-03-27T19:25:29.930Z,25.60
2019-03-27T19:27:31.174Z,61.40
2019-03-27T19:29:32.685Z,24.40
2019-03-27T19:31:33.837Z,48.75
2019-03-27T19:33:35.117Z,94.70
2019-03-27T19:35:36.289Z,16.48
2019-03-27T19:37:37.696Z,15.80
2019-03-27T19:39:39.194Z,14.95
2019-03-27T19:41:40.518Z,17.37
2019-03-27T19:43:41.891Z,16.82
2019-03-27T19:45:43.138Z,16.70
2019-03-27T19:47:44.285Z,18.80
2019-03-27T19:49:45.440Z,19.12
2019-03-27T19:51:46.630Z,22.75
2019-03-27T19:53:47.835Z,18.80
2019-03-27T19:55:48.978Z,24.12
2019-03-27T19:57:51.503Z,11.90
2019-03-27T19:59:52.784Z,15.48
2019-03-27T20:01:54.027Z,14.58
2019-03-27T20:03:55.178Z,16.27
2019-03-27T20:05:56.364Z,18.02
2019-03-27T20:07:57.644Z,25.27
2019-03-27T20:09:58.862Z,15.25
2019-03-27T20:12:00.048Z,14.78
2019-03-27T20:14:01.207Z,20.92
2019-03-27T20:16:02.458Z,16.87
2019-03-27T20:18:04.236Z,15.50
2019-03-27T20:20:07.411Z,14.58
2019-03-27T20:22:08.947Z,14.23
2019-03-27T20:24:10.484Z,14.78
2019-03-27T20:26:11.631Z,15.23
2019-03-27T20:28:12.906Z,14.93
2019-03-27T20:30:16.793Z,18.95
2019-03-27T20:32:17.950Z,15.85
2019-03-27T20:34:19.187Z,16.97
2019-03-27T20:36:20.754Z,13.98
2019-03-27T20:38:21.935Z,18.70
2019-03-27T20:40:23.184Z,19.67
2019-03-27T20:42:24.329Z,18.90
2019-03-27T20:44:25.522Z,19.30
2019-03-27T20:46:29.247Z,17.23
2019-03-27T20:48:29.738Z,15.48
2019-03-27T20:50:32.358Z,13.55
2019-03-27T20:52:33.639Z,20.45
2019-03-27T20:54:34.904Z,16.57
2019-03-27T20:56:36.142Z,18.17
2019-03-27T20:58:37.294Z,16.57
2019-03-27T21:00:38.569Z,15.80
2019-03-27T21:02:39.709Z,17.65
2019-03-27T21:04:40.879Z,18.23
2019-03-27T21:06:42.035Z,14.15
2019-03-27T21:08:43.347Z,15.32
2019-03-27T21:10:44.611Z,15.75
2019-03-27T21:12:45.755Z,16.45
2019-03-27T21:14:46.982Z,16.87
2019-03-27T21:16:48.218Z,16.45
2019-03-27T21:18:49.376Z,15.50
2019-03-27T21:20:50.535Z,12.50
2019-03-27T21:22:51.693Z,15.85
2019-03-27T21:24:52.850Z,18.35
2019-03-27T21:26:54.110Z,17.65
2019-03-27T21:28:55.292Z,15.63
2019-03-27T21:30:56.439Z,16.85
2019-03-27T21:32:57.874Z,19.05
2019-03-27T21:34:59.036Z,14.85
2019-03-27T21:37:00.194Z,18.52
2019-03-27T21:39:01.450Z,22.37
2019-03-27T21:41:02.802Z,17.73
2019-03-27T21:43:03.955Z,23.22
2019-03-27T21:45:07.517Z,18.62
2019-03-27T21:47:08.670Z,19.00
2019-03-27T21:49:09.830Z,21.48
2019-03-27T21:51:11.110Z,23.18
2019-03-27T21:53:12.258Z,24.52
2019-03-27T21:55:22.365Z,18.00
2019-03-27T21:57:16.896Z,16.30
2019-03-27T21:59:18.060Z,20.32
2019-03-27T22:01:19.210Z,16.82
2019-03-27T22:03:20.658Z,16.57
2019-03-27T22:05:21.818Z,17.52
2019-03-27T22:07:22.962Z,20.57
2019-03-27T22:09:24.631Z,25.50
2019-03-27T22:13:27.201Z,23.45
2019-03-27T22:15:28.363Z,31.57
2019-03-27T22:17:29.568Z,23.15
2019-03-27T22:19:30.726Z,24.72
2019-03-27T22:21:31.910Z,21.95
2019-03-27T22:23:33.069Z,29.82
2019-03-27T22:25:36.117Z,23.75
2019-03-27T22:27:37.297Z,18.45
2019-03-27T22:29:38.453Z,24.65
2019-03-27T22:31:39.606Z,25.05
2019-03-27T22:33:41.158Z,22.82
2019-03-27T22:35:42.395Z,22.45
2019-03-27T22:37:43.542Z,22.02
2019-03-27T22:39:44.701Z,21.82
2019-03-27T22:41:45.847Z,22.25
2019-03-27T22:43:47.009Z,17.05
2019-03-27T22:45:48.163Z,21.95
2019-03-27T22:47:49.319Z,16.65
2019-03-27T22:49:50.486Z,17.35
2019-03-27T22:51:51.631Z,20.08
2019-03-27T22:53:52.853Z,16.48
2019-03-27T22:55:54.014Z,18.32
2019-03-27T22:57:55.158Z,20.80
2019-03-27T22:59:56.323Z,21.48
2019-03-27T23:01:57.470Z,17.20
2019-03-27T23:03:58.619Z,21.35
2019-03-27T23:05:59.967Z,18.62
2019-03-27T23:08:01.348Z,23.32
2019-03-27T23:10:04.812Z,17.10
2019-03-27T23:12:06.055Z,21.68
2019-03-27T23:14:07.411Z,21.37
2019-03-27T23:16:08.617Z,19.17
2019-03-27T23:18:10.235Z,20.75
2019-03-27T23:20:11.512Z,17.62
2019-03-27T23:22:13.344Z,16.55
2019-03-27T23:24:14.498Z,23.50
2019-03-27T23:26:15.666Z,16.77
2019-03-27T23:28:16.820Z,19.65
2019-03-27T23:30:17.986Z,20.85
2019-03-27T23:32:19.206Z,21.52
2019-03-27T23:34:20.368Z,22.85
2019-03-27T23:36:21.514Z,21.70
2019-03-27T23:38:22.658Z,23.05
2019-03-27T23:40:23.882Z,21.42
2019-03-27T23:42:25.035Z,17.23
2019-03-27T23:44:26.258Z,19.73
2019-03-27T23:46:27.402Z,24.70
2019-03-27T23:48:28.630Z,21.68
2019-03-27T23:50:29.790Z,24.87
2019-03-27T23:52:30.926Z,26.15
2019-03-27T23:54:32.094Z,20.35
2019-03-27T23:56:33.238Z,27.37
2019-03-27T23:58:34.389Z,20.20
